createdAt,value
2018-04-08T00:01:28.470Z,9.40
2018-04-08T00:04:01.093Z,9.27
2018-04-08T00:06:33.684Z,9.57
2018-04-08T00:09:06.304Z,8.97
2018-04-08T00:11:38.896Z,9.70
2018-04-08T00:14:11.539Z,8.97
2018-04-08T00:16:44.913Z,9.03
2018-04-08T00:19:17.539Z,9.23
2018-04-08T00:21:50.916Z,8.77
2018-04-08T00:24:23.539Z,8.77
2018-04-08T00:26:56.910Z,8.23
2018-04-08T00:29:29.554Z,9.83
2018-04-08T00:32:02.916Z,8.60
2018-04-08T00:34:35.568Z,8.87
2018-04-08T00:37:08.189Z,8.70
2018-04-08T00:39:40.810Z,8.40
2018-04-08T00:42:13.467Z,8.87
2018-04-08T00:44:46.200Z,8.23
2018-04-08T00:47:18.884Z,8.43
2018-04-08T00:49:51.519Z,8.87
2018-04-08T00:52:24.129Z,9.00
2018-04-08T00:54:56.756Z,8.37
2018-04-08T00:57:29.352Z,8.87
2018-04-08T01:00:02.004Z,8.23
2018-04-08T01:02:34.600Z,8.13
2018-04-08T01:05:07.218Z,8.10
2018-04-08T01:07:39.820Z,8.47
2018-04-08T01:10:13.252Z,7.80
2018-04-08T01:12:46.638Z,8.40
2018-04-08T01:15:20.045Z,7.73
2018-04-08T01:17:52.635Z,8.03
2018-04-08T01:20:25.265Z,7.70
2018-04-08T01:22:57.869Z,8.10
2018-04-08T01:25:30.512Z,7.77
2018-04-08T01:28:03.107Z,7.67
2018-04-08T01:30:35.725Z,8.13
2018-04-08T01:33:09.149Z,7.93
2018-04-08T01:35:41.797Z,7.90
2018-04-08T01:38:14.402Z,8.33
2018-04-08T01:40:47.836Z,7.13
2018-04-08T01:43:20.437Z,7.43
2018-04-08T01:45:53.077Z,8.03
2018-04-08T01:48:25.667Z,7.37
2018-04-08T01:50:58.305Z,7.10
2018-04-08T01:53:30.900Z,8.00
2018-04-08T01:56:03.511Z,8.30
2018-04-08T01:58:36.114Z,7.50
2018-04-08T02:01:09.498Z,7.43
2018-04-08T02:03:42.116Z,7.17
2018-04-08T02:06:14.740Z,7.93
2018-04-08T02:08:47.344Z,7.07
2018-04-08T02:11:20.754Z,7.17
2018-04-08T02:13:54.121Z,7.40
2018-04-08T02:16:26.770Z,7.27
2018-04-08T02:18:59.378Z,6.67
2018-04-08T02:21:32.000Z,6.83
2018-04-08T02:24:04.601Z,6.17
2018-04-08T02:26:37.221Z,7.33
2018-04-08T02:29:10.593Z,7.50
2018-04-08T02:31:43.223Z,7.03
2018-04-08T02:34:16.591Z,7.13
2018-04-08T02:36:49.213Z,6.80
2018-04-08T02:39:22.578Z,7.53
2018-04-08T02:41:55.210Z,7.10
2018-04-08T02:44:27.834Z,6.90
2018-04-08T02:47:00.460Z,6.50
2018-04-08T02:49:33.062Z,6.70
2018-04-08T02:52:05.678Z,7.10
2018-04-08T02:54:39.041Z,6.53
2018-04-08T02:57:12.457Z,6.73
2018-04-08T02:59:45.062Z,6.87
2018-04-08T03:02:17.710Z,7.13
2018-04-08T03:04:50.316Z,7.43
2018-04-08T03:07:22.937Z,6.57
2018-04-08T03:09:55.537Z,7.03
2018-04-08T03:12:28.156Z,6.60
2018-04-08T03:15:01.529Z,6.53
2018-04-08T03:17:34.172Z,7.00
2018-04-08T03:20:06.778Z,6.30
2018-04-08T03:22:39.426Z,6.23
2018-04-08T03:25:12.028Z,6.90
2018-04-08T03:27:45.417Z,7.70
2018-04-08T03:30:18.018Z,7.27
2018-04-08T03:32:51.426Z,7.00
2018-04-08T03:35:24.017Z,7.00
2018-04-08T03:37:56.649Z,6.70
2018-04-08T03:40:29.262Z,6.67
2018-04-08T03:43:01.895Z,6.97
2018-04-08T03:45:34.488Z,6.97
2018-04-08T03:48:07.903Z,6.97
2018-04-08T03:50:41.276Z,7.73
2018-04-08T03:53:14.020Z,7.30
2018-04-08T03:55:46.626Z,7.13
2018-04-08T03:58:19.252Z,7.70
2018-04-08T04:00:51.862Z,7.37
2018-04-08T04:03:24.506Z,8.23
2018-04-08T04:05:57.114Z,7.50
2018-04-08T04:08:29.741Z,7.53
2018-04-08T04:11:02.344Z,7.53
2018-04-08T04:13:35.748Z,7.53
2018-04-08T04:16:08.349Z,8.33
2018-04-08T04:18:53.693Z,7.97
2018-04-08T04:21:38.318Z,7.50
2018-04-08T04:24:23.694Z,8.03
2018-04-08T04:26:56.301Z,6.87
2018-04-08T04:29:29.698Z,7.47
2018-04-08T04:32:02.345Z,7.83
2018-04-08T04:34:34.972Z,8.17
2018-04-08T04:37:07.574Z,7.70
2018-04-08T04:39:40.216Z,7.30
2018-04-08T04:42:12.824Z,7.50
2018-04-08T04:44:45.449Z,8.07
2018-04-08T04:47:18.048Z,7.40
2018-04-08T04:49:51.457Z,7.37
2018-04-08T04:52:24.821Z,8.07
2018-04-08T04:54:57.455Z,8.50
2018-04-08T04:57:30.820Z,8.27
2018-04-08T05:00:03.462Z,8.43
2018-04-08T05:02:36.834Z,7.00
2018-04-08T05:05:09.456Z,7.00
2018-04-08T05:07:42.830Z,8.60
2018-04-08T05:10:15.462Z,7.90
2018-04-08T05:12:48.824Z,7.17
2018-04-08T05:15:21.445Z,6.97
2018-04-08T05:17:54.053Z,7.80
2018-04-08T05:20:27.442Z,7.43
2018-04-08T05:23:00.049Z,8.20
2018-04-08T05:25:33.469Z,7.70
2018-04-08T05:28:06.892Z,7.27
2018-04-08T05:30:39.480Z,7.70
2018-04-08T05:33:12.081Z,8.40
2018-04-08T05:35:44.718Z,7.13
2018-04-08T05:38:18.293Z,7.93
2018-04-08T05:40:50.962Z,7.83
2018-04-08T05:43:24.326Z,6.97
2018-04-08T05:45:56.965Z,7.77
2018-04-08T05:48:29.579Z,8.33
2018-04-08T05:51:02.207Z,7.87
2018-04-08T05:53:36.325Z,7.07
2018-04-08T05:56:08.969Z,8.17
2018-04-08T05:58:42.342Z,7.77
2018-04-08T06:01:14.982Z,8.33
2018-04-08T06:03:47.613Z,7.30
2018-04-08T06:06:20.244Z,8.10
2018-04-08T06:08:53.604Z,8.20
2018-04-08T06:11:26.233Z,8.77
2018-04-08T06:13:58.837Z,8.60
2018-04-08T06:16:32.249Z,8.10
2018-04-08T06:19:05.613Z,7.37
2018-04-08T06:21:38.233Z,8.17
2018-04-08T06:24:10.848Z,7.20
2018-04-08T06:26:43.495Z,7.90
2018-04-08T06:29:16.099Z,7.10
2018-04-08T06:31:48.745Z,7.33
2018-04-08T06:34:21.337Z,7.87
2018-04-08T06:36:53.963Z,7.70
2018-04-08T06:39:26.565Z,7.70
2018-04-08T06:41:59.198Z,7.10
2018-04-08T06:44:31.798Z,8.17
2018-04-08T06:47:04.437Z,9.97
2018-04-08T06:49:37.041Z,6.83
2018-04-08T06:52:10.450Z,7.07
2018-04-08T06:54:43.828Z,7.80
2018-04-08T06:57:16.501Z,7.60
2018-04-08T06:59:49.116Z,7.83
2018-04-08T07:02:21.754Z,7.33
2018-04-08T07:04:54.363Z,7.43
2018-04-08T07:07:27.002Z,6.70
2018-04-08T07:09:59.601Z,7.17
2018-04-08T07:12:32.219Z,7.70
2018-04-08T07:15:05.581Z,6.77
2018-04-08T07:17:38.201Z,7.17
2018-04-08T07:20:11.581Z,7.50
2018-04-08T07:22:44.224Z,6.80
2018-04-08T07:25:16.826Z,6.60
2018-04-08T07:27:49.449Z,6.80
2018-04-08T07:30:22.062Z,7.67
2018-04-08T07:32:54.702Z,7.33
2018-04-08T07:35:27.357Z,7.20
2018-04-08T07:38:00.070Z,6.53
2018-04-08T07:40:32.645Z,7.50
2018-04-08T07:43:06.053Z,6.07
2018-04-08T07:45:39.415Z,7.03
2018-04-08T07:48:12.837Z,6.97
2018-04-08T07:50:45.450Z,7.40
2018-04-08T07:53:18.073Z,7.00
2018-04-08T07:55:51.438Z,6.97
2018-04-08T07:58:24.061Z,6.80
2018-04-08T08:00:57.428Z,6.77
2018-04-08T08:03:30.066Z,6.00
2018-04-08T08:06:03.428Z,6.37
2018-04-08T08:08:36.054Z,6.40
2018-04-08T08:11:09.418Z,6.93
2018-04-08T08:13:42.062Z,6.33
2018-04-08T08:16:15.434Z,6.23
2018-04-08T08:18:48.062Z,6.23
2018-04-08T08:21:21.429Z,6.80
2018-04-08T08:23:54.049Z,6.90
2018-04-08T08:26:26.645Z,7.07
2018-04-08T08:28:59.265Z,6.23
2018-04-08T08:31:31.863Z,6.07
2018-04-08T08:34:04.478Z,7.03
2018-04-08T08:36:37.079Z,6.20
2018-04-08T08:39:09.723Z,7.13
2018-04-08T08:41:42.364Z,6.23
2018-04-08T08:44:14.980Z,6.30
2018-04-08T08:46:47.585Z,6.80
2018-04-08T08:49:20.983Z,6.47
2018-04-08T08:51:53.584Z,6.23
2018-04-08T08:54:26.965Z,6.43
2018-04-08T08:56:59.571Z,6.43
2018-04-08T08:59:32.204Z,6.90
2018-04-08T09:02:04.812Z,6.40
2018-04-08T09:04:37.429Z,6.23
2018-04-08T09:07:12.679Z,6.70
2018-04-08T09:09:45.311Z,7.60
2018-04-08T09:12:18.686Z,6.00
2018-04-08T09:14:51.306Z,5.67
2018-04-08T09:17:24.678Z,6.13
2018-04-08T09:19:57.301Z,6.60
2018-04-08T09:22:35.116Z,6.80
2018-04-08T09:25:09.421Z,6.47
2018-04-08T09:27:42.024Z,6.70
2018-04-08T09:30:14.641Z,6.17
2018-04-08T09:32:48.009Z,6.70
2018-04-08T09:35:20.633Z,6.30
2018-04-08T09:37:53.234Z,6.80
2018-04-08T09:40:26.628Z,7.40
2018-04-08T09:42:59.232Z,6.13
2018-04-08T09:45:32.626Z,6.53
2018-04-08T09:48:05.224Z,6.80
2018-04-08T09:50:37.837Z,6.87
2018-04-08T09:53:11.209Z,6.00
2018-04-08T09:55:43.837Z,6.63
2018-04-08T09:58:33.026Z,6.07
2018-04-08T10:06:15.906Z,6.20
2018-04-08T10:08:49.265Z,6.60
2018-04-08T10:11:21.889Z,6.30
2018-04-08T10:13:54.490Z,5.90
2018-04-08T10:16:27.884Z,6.03
2018-04-08T10:19:00.489Z,6.00
2018-04-08T10:21:33.877Z,6.20
2018-04-08T10:24:06.494Z,6.03
2018-04-08T10:26:39.883Z,5.80
2018-04-08T10:29:12.515Z,5.80
2018-04-08T10:31:45.142Z,5.80
2018-04-08T10:34:17.745Z,6.40
2018-04-08T10:36:50.370Z,6.23
2018-04-08T10:39:23.733Z,6.00
2018-04-08T10:41:56.353Z,6.13
2018-04-08T10:44:28.954Z,6.53
2018-04-08T10:47:01.580Z,5.23
2018-04-08T10:49:34.184Z,5.70
2018-04-08T10:52:06.800Z,4.67
2018-04-08T10:54:39.400Z,5.30
2018-04-08T10:57:12.017Z,4.83
2018-04-08T10:59:45.393Z,5.10
2018-04-08T11:02:18.022Z,5.50
2018-04-08T11:04:51.413Z,4.97
2018-04-08T11:07:24.035Z,5.23
2018-04-08T11:09:56.644Z,4.93
2018-04-08T11:12:29.266Z,5.03
2018-04-08T11:15:01.880Z,4.83
2018-04-08T11:17:34.500Z,4.97
2018-04-08T11:20:07.096Z,5.03
2018-04-08T11:22:39.717Z,4.73
2018-04-08T11:25:12.321Z,5.20
2018-04-08T11:27:44.950Z,4.50
2018-04-08T11:30:18.333Z,4.80
2018-04-08T11:32:50.941Z,4.97
2018-04-08T11:35:23.563Z,4.77
2018-04-08T11:37:56.169Z,4.60
2018-04-08T11:40:28.813Z,4.77
2018-04-08T11:43:01.411Z,5.17
2018-04-08T11:45:34.037Z,4.43
2018-04-08T11:48:06.642Z,4.80
2018-04-08T11:50:39.266Z,4.57
2018-04-08T11:53:11.873Z,4.87
2018-04-08T11:55:44.505Z,4.67
2018-04-08T11:58:17.115Z,5.10
2018-04-08T12:00:49.737Z,4.87
2018-04-08T12:03:22.341Z,5.30
2018-04-08T12:05:54.965Z,4.60
2018-04-08T12:08:27.566Z,4.47
2018-04-08T12:11:00.189Z,4.93
2018-04-08T12:13:32.794Z,4.90
2018-04-08T12:16:05.418Z,4.57
2018-04-08T12:18:38.792Z,4.93
2018-04-08T12:21:11.412Z,5.70
2018-04-08T12:23:44.777Z,5.20
2018-04-08T12:26:23.069Z,4.57
2018-04-08T16:02:05.334Z,5.57
2018-04-08T16:04:37.961Z,6.07
2018-04-08T16:07:10.561Z,5.40
2018-04-08T16:09:44.013Z,5.63
2018-04-08T16:12:16.621Z,5.67
2018-04-08T16:14:49.248Z,5.60
2018-04-08T16:17:21.869Z,9.03
2018-04-08T16:19:55.279Z,7.97
2018-04-08T16:22:28.645Z,5.80
2018-04-08T16:25:01.281Z,5.80
2018-04-08T16:27:33.879Z,5.20
2018-04-08T16:30:06.502Z,5.40
2018-04-08T16:32:39.097Z,5.67
2018-04-08T16:35:11.715Z,6.07
2018-04-08T16:37:44.340Z,5.60
2018-04-08T16:40:16.966Z,5.70
2018-04-08T16:42:49.574Z,6.07
2018-04-08T16:45:22.194Z,5.87
2018-04-08T16:47:55.563Z,6.10
2018-04-08T16:50:28.185Z,6.50
2018-04-08T16:53:01.562Z,5.17
2018-04-08T16:55:34.200Z,5.67
2018-04-08T16:58:07.571Z,5.70
2018-04-08T17:00:40.189Z,6.37
2018-04-08T17:03:12.798Z,5.83
2018-04-08T17:05:46.195Z,5.70
2018-04-08T17:08:18.798Z,6.03
2018-04-08T17:10:52.198Z,5.87
2018-04-08T17:13:25.568Z,6.17
2018-04-08T17:15:58.201Z,5.50
2018-04-08T17:18:31.569Z,5.60
2018-04-08T17:21:04.212Z,5.60
2018-04-08T17:23:36.817Z,6.13
2018-04-08T17:26:09.446Z,6.83
2018-04-08T17:28:42.054Z,6.27
2018-04-08T17:31:14.689Z,6.20
2018-04-08T17:33:47.294Z,6.87
2018-04-08T17:36:19.930Z,6.43
2018-04-08T17:38:52.530Z,6.13
2018-04-08T17:41:25.153Z,6.67
2018-04-08T17:43:57.757Z,6.23
2018-04-08T17:46:30.387Z,6.13
2018-04-08T17:49:03.000Z,6.30
2018-04-08T17:51:36.397Z,6.53
2018-04-08T17:54:08.999Z,6.40
2018-04-08T17:56:41.643Z,6.83
2018-04-08T17:59:14.266Z,6.90
2018-04-08T18:01:46.913Z,7.10
2018-04-08T18:04:19.517Z,6.93
2018-04-08T18:06:52.142Z,6.37
2018-04-08T18:09:24.745Z,6.47
2018-04-08T18:11:57.370Z,6.40
2018-04-08T18:14:30.746Z,6.87
2018-04-08T18:17:03.376Z,6.80
2018-04-08T18:19:36.753Z,8.00
2018-04-08T18:22:09.376Z,8.00
2018-04-08T18:24:42.003Z,8.03
2018-04-08T18:27:14.646Z,7.23
2018-04-08T18:29:49.026Z,7.50
2018-04-08T18:32:21.653Z,7.63
2018-04-08T18:34:54.253Z,8.00
2018-04-08T18:37:26.874Z,8.23
2018-04-08T18:39:59.479Z,8.53
2018-04-08T18:42:32.126Z,8.83
2018-04-08T18:45:04.730Z,8.20
2018-04-08T18:47:37.373Z,8.20
2018-04-08T18:50:09.970Z,8.73
2018-04-08T18:52:42.618Z,8.57
2018-04-08T18:55:16.053Z,8.33
2018-04-08T18:57:48.716Z,9.67
2018-04-08T19:00:22.088Z,9.17
2018-04-08T19:02:54.719Z,11.17
2018-04-08T19:05:28.090Z,18.83
2018-04-08T19:08:00.745Z,34.43
2018-04-08T19:10:33.349Z,28.77
2018-04-08T19:13:05.978Z,18.07
2018-04-08T19:15:38.586Z,14.93
2018-04-08T19:18:11.994Z,12.17
2018-04-08T19:20:45.381Z,12.90
2018-04-08T19:23:18.030Z,10.97
2018-04-08T19:25:51.409Z,9.80
2018-04-08T19:28:24.805Z,8.80
2018-04-08T19:30:57.458Z,16.37
2018-04-08T19:33:30.106Z,12.93
2018-04-08T19:36:02.777Z,10.07
2018-04-08T19:38:36.172Z,9.70
2018-04-08T19:41:09.044Z,9.10
2018-04-08T19:43:41.860Z,27.87
2018-04-08T19:46:14.703Z,15.07
2018-04-08T19:48:47.452Z,19.23
2018-04-08T19:51:20.064Z,13.90
2018-04-08T19:53:52.714Z,12.17
2018-04-08T19:56:25.330Z,11.70
2018-04-08T19:58:57.959Z,8.90
2018-04-08T20:01:31.332Z,8.97
2018-04-08T20:04:03.983Z,8.43
2018-04-08T20:06:36.590Z,8.90
2018-04-08T20:09:09.218Z,10.17
2018-04-08T20:11:41.842Z,10.67
2018-04-08T20:14:14.513Z,12.37
2018-04-08T20:16:47.912Z,19.10
2018-04-08T20:19:20.545Z,24.10
2018-04-08T20:21:53.155Z,26.33
2018-04-08T20:24:25.782Z,28.77
2018-04-08T20:26:58.390Z,35.20
2018-04-08T20:29:31.816Z,21.63
2018-04-08T20:32:05.178Z,30.43
2018-04-08T20:34:37.808Z,43.97
2018-04-08T20:37:11.201Z,42.77
2018-04-08T20:39:44.637Z,20.27
2018-04-08T20:42:17.254Z,13.97
2018-04-08T20:44:49.890Z,11.03
2018-04-08T20:47:22.506Z,12.80
2018-04-08T20:49:55.929Z,12.40
2018-04-08T20:52:28.531Z,12.30
2018-04-08T20:55:01.163Z,10.43
2018-04-08T20:57:33.778Z,11.50
2018-04-08T21:00:06.404Z,10.80
2018-04-08T21:02:39.009Z,11.03
2018-04-08T21:05:11.657Z,13.67
2018-04-08T21:07:45.054Z,14.07
2018-04-08T21:10:17.693Z,14.27
2018-04-08T21:12:50.340Z,15.97
2018-04-08T21:15:22.951Z,16.03
2018-04-08T21:17:56.323Z,14.73
2018-04-08T21:20:28.957Z,14.60
2018-04-08T21:23:01.578Z,14.00
2018-04-08T21:25:34.220Z,12.87
2018-04-08T21:28:07.599Z,13.23
2018-04-08T21:30:40.226Z,13.70
2018-04-08T21:33:13.616Z,13.03
2018-04-08T21:35:46.272Z,11.60
2018-04-08T21:38:18.883Z,13.37
2018-04-08T21:40:51.514Z,13.47
2018-04-08T21:43:24.889Z,13.00
2018-04-08T21:45:57.521Z,12.37
2018-04-08T21:48:30.910Z,11.43
2018-04-08T21:51:03.539Z,12.63
2018-04-08T21:53:36.150Z,11.50
2018-04-08T21:56:08.798Z,11.90
2018-04-08T21:58:42.174Z,12.03
2018-04-08T22:01:14.831Z,11.70
2018-04-08T22:03:47.441Z,10.90
2018-04-08T22:06:20.095Z,11.13
2018-04-08T22:08:53.465Z,11.77
2018-04-08T22:11:26.085Z,11.47
2018-04-08T22:13:59.463Z,11.57
2018-04-08T22:16:32.097Z,11.40
2018-04-08T22:19:05.469Z,10.83
2018-04-08T22:21:38.105Z,11.07
2018-04-08T22:24:10.721Z,10.83
2018-04-08T22:26:43.379Z,10.87
2018-04-08T22:29:16.761Z,11.17
2018-04-08T22:31:49.410Z,9.97
2018-04-08T22:34:22.020Z,9.90
2018-04-08T22:36:54.670Z,10.83
2018-04-08T22:39:27.289Z,12.20
2018-04-08T22:41:59.952Z,11.03
2018-04-08T22:44:32.569Z,11.43
2018-04-08T22:47:05.196Z,11.27
2018-04-08T22:49:37.798Z,12.30
2018-04-08T22:52:10.419Z,11.43
2018-04-08T22:54:43.030Z,11.43
2018-04-08T22:57:15.668Z,13.00
2018-04-08T22:59:48.285Z,12.63
2018-04-08T23:02:21.677Z,11.63
2018-04-08T23:04:54.279Z,11.13
2018-04-08T23:07:27.666Z,9.87
2018-04-08T23:10:00.279Z,10.37
2018-04-08T23:12:33.777Z,10.13
2018-04-08T23:15:06.398Z,10.27
2018-04-08T23:17:39.028Z,10.87
2018-04-08T23:20:11.644Z,10.67
2018-04-08T23:22:44.289Z,11.17
2018-04-08T23:25:16.905Z,10.80
2018-04-08T23:27:49.533Z,10.93
2018-04-08T23:30:22.145Z,11.97
2018-04-08T23:32:55.541Z,9.60
2018-04-08T23:35:28.902Z,9.93
2018-04-08T23:38:01.532Z,9.97
2018-04-08T23:40:34.130Z,10.37
2018-04-08T23:43:07.545Z,10.90
2018-04-08T23:45:40.923Z,11.67
2018-04-08T23:48:13.567Z,12.40
2018-04-08T23:50:46.186Z,11.83
2018-04-08T23:53:18.834Z,12.60
2018-04-08T23:55:52.194Z,12.03
2018-04-08T23:58:25.582Z,11.90
